sensor_id;sensor_type;location;lat;lon;timestamp;P1;durP1;ratioP1;P2;durP2;ratioP2
32146;SDS011;32190;49.112;8.598;2023-01-28T00:01:44;0.50;;;0.50;;
32146;SDS011;32190;49.112;8.598;2023-01-28T00:07:35;0.60;;;0.60;;
32146;SDS011;32190;49.112;8.598;2023-01-28T00:13:26;0.70;;;0.70;;
32146;SDS011;32190;49.112;8.598;2023-01-28T00:19:17;0.80;;;0.63;;
32146;SDS011;32190;49.112;8.598;2023-01-28T00:25:07;0.70;;;0.70;;
32146;SDS011;32190;49.112;8.598;2023-01-28T00:31:04;0.63;;;0.63;;
32146;SDS011;32190;49.112;8.598;2023-01-28T00:36:56;0.60;;;0.60;;
32146;SDS011;32190;49.112;8.598;2023-01-28T00:42:46;0.68;;;0.68;;
32146;SDS011;32190;49.112;8.598;2023-01-28T00:48:37;0.77;;;0.70;;
32146;SDS011;32190;49.112;8.598;2023-01-28T00:54:30;1.00;;;0.73;;
32146;SDS011;32190;49.112;8.598;2023-01-28T01:00:21;0.80;;;0.80;;
32146;SDS011;32190;49.112;8.598;2023-01-28T01:06:16;0.50;;;0.50;;
32146;SDS011;32190;49.112;8.598;2023-01-28T01:12:06;0.60;;;0.60;;
32146;SDS011;32190;49.112;8.598;2023-01-28T01:17:57;0.63;;;0.63;;
32146;SDS011;32190;49.112;8.598;2023-01-28T01:23:49;0.70;;;0.70;;
32146;SDS011;32190;49.112;8.598;2023-01-28T01:29:40;0.90;;;0.70;;
32146;SDS011;32190;49.112;8.598;2023-01-28T01:35:31;0.68;;;0.68;;
32146;SDS011;32190;49.112;8.598;2023-01-28T01:41:31;0.88;;;0.88;;
32146;SDS011;32190;49.112;8.598;2023-01-28T01:53:21;0.57;;;0.57;;
32146;SDS011;32190;49.112;8.598;2023-01-28T01:59:15;0.80;;;0.80;;
32146;SDS011;32190;49.112;8.598;2023-01-28T02:05:11;0.68;;;0.68;;
32146;SDS011;32190;49.112;8.598;2023-01-28T02:11:05;0.65;;;0.65;;
32146;SDS011;32190;49.112;8.598;2023-01-28T02:16:58;0.60;;;0.60;;
32146;SDS011;32190;49.112;8.598;2023-01-28T02:29:24;0.52;;;0.52;;
32146;SDS011;32190;49.112;8.598;2023-01-28T02:35:28;0.70;;;0.70;;
32146;SDS011;32190;49.112;8.598;2023-01-28T02:41:27;0.80;;;0.80;;
32146;SDS011;32190;49.112;8.598;2023-01-28T02:47:21;0.85;;;0.85;;
32146;SDS011;32190;49.112;8.598;2023-01-28T02:53:34;0.90;;;0.90;;
32146;SDS011;32190;49.112;8.598;2023-01-28T03:06:01;0.70;;;0.70;;
32146;SDS011;32190;49.112;8.598;2023-01-28T03:12:10;1.13;;;1.10;;
32146;SDS011;32190;49.112;8.598;2023-01-28T03:18:26;0.80;;;0.80;;
32146;SDS011;32190;49.112;8.598;2023-01-28T03:24:46;1.30;;;1.20;;
32146;SDS011;32190;49.112;8.598;2023-01-28T03:31:01;1.08;;;1.05;;
32146;SDS011;32190;49.112;8.598;2023-01-28T03:37:13;1.20;;;1.10;;
32146;SDS011;32190;49.112;8.598;2023-01-28T03:43:04;0.73;;;0.73;;
32146;SDS011;32190;49.112;8.598;2023-01-28T03:48:54;1.42;;;1.23;;
32146;SDS011;32190;49.112;8.598;2023-01-28T03:54:45;0.80;;;0.80;;
32146;SDS011;32190;49.112;8.598;2023-01-28T04:00:37;0.90;;;0.90;;
32146;SDS011;32190;49.112;8.598;2023-01-28T04:06:31;1.00;;;1.00;;
32146;SDS011;32190;49.112;8.598;2023-01-28T04:12:22;0.98;;;0.90;;
32146;SDS011;32190;49.112;8.598;2023-01-28T04:18:12;1.13;;;1.02;;
32146;SDS011;32190;49.112;8.598;2023-01-28T04:24:03;0.73;;;0.73;;
32146;SDS011;32190;49.112;8.598;2023-01-28T04:29:54;0.77;;;0.77;;
32146;SDS011;32190;49.112;8.598;2023-01-28T04:35:45;0.98;;;0.98;;
32146;SDS011;32190;49.112;8.598;2023-01-28T04:41:35;0.70;;;0.70;;
32146;SDS011;32190;49.112;8.598;2023-01-28T04:47:26;0.88;;;0.88;;
32146;SDS011;32190;49.112;8.598;2023-01-28T04:53:16;0.80;;;0.80;;
32146;SDS011;32190;49.112;8.598;2023-01-28T04:59:07;0.80;;;0.80;;
32146;SDS011;32190;49.112;8.598;2023-01-28T05:04:58;1.00;;;0.90;;
32146;SDS011;32190;49.112;8.598;2023-01-28T05:10:50;1.00;;;0.95;;
32146;SDS011;32190;49.112;8.598;2023-01-28T05:16:41;1.17;;;1.17;;
32146;SDS011;32190;49.112;8.598;2023-01-28T05:22:31;0.82;;;0.82;;
32146;SDS011;32190;49.112;8.598;2023-01-28T05:28:22;0.60;;;0.60;;
32146;SDS011;32190;49.112;8.598;2023-01-28T05:34:12;0.60;;;0.60;;
32146;SDS011;32190;49.112;8.598;2023-01-28T05:40:03;0.70;;;0.70;;
32146;SDS011;32190;49.112;8.598;2023-01-28T05:45:54;0.80;;;0.80;;
32146;SDS011;32190;49.112;8.598;2023-01-28T05:51:45;0.70;;;0.70;;
32146;SDS011;32190;49.112;8.598;2023-01-28T05:57:38;0.85;;;0.85;;
32146;SDS011;32190;49.112;8.598;2023-01-28T06:03:28;0.70;;;0.70;;
32146;SDS011;32190;49.112;8.598;2023-01-28T06:09:19;0.55;;;0.55;;
32146;SDS011;32190;49.112;8.598;2023-01-28T06:15:16;0.73;;;0.73;;
32146;SDS011;32190;49.112;8.598;2023-01-28T06:21:07;0.70;;;0.70;;
32146;SDS011;32190;49.112;8.598;2023-01-28T06:26:57;0.90;;;0.90;;
32146;SDS011;32190;49.112;8.598;2023-01-28T06:32:52;0.57;;;0.57;;
32146;SDS011;32190;49.112;8.598;2023-01-28T06:38:43;0.52;;;0.52;;
32146;SDS011;32190;49.112;8.598;2023-01-28T06:44:34;0.70;;;0.70;;
32146;SDS011;32190;49.112;8.598;2023-01-28T06:50:25;0.68;;;0.68;;
32146;SDS011;32190;49.112;8.598;2023-01-28T06:56:15;1.40;;;1.30;;
32146;SDS011;32190;49.112;8.598;2023-01-28T07:02:08;0.70;;;0.70;;
32146;SDS011;32190;49.112;8.598;2023-01-28T07:08:00;0.85;;;0.63;;
32146;SDS011;32190;49.112;8.598;2023-01-28T07:13:51;0.75;;;0.75;;
32146;SDS011;32190;49.112;8.598;2023-01-28T07:19:41;0.70;;;0.70;;
32146;SDS011;32190;49.112;8.598;2023-01-28T07:25:32;0.77;;;0.77;;
32146;SDS011;32190;49.112;8.598;2023-01-28T07:31:22;0.82;;;0.82;;
32146;SDS011;32190;49.112;8.598;2023-01-28T07:37:13;0.90;;;0.90;;
32146;SDS011;32190;49.112;8.598;2023-01-28T07:43:04;0.80;;;0.80;;
32146;SDS011;32190;49.112;8.598;2023-01-28T07:48:56;0.82;;;0.82;;
32146;SDS011;32190;49.112;8.598;2023-01-28T07:54:46;1.23;;;0.77;;
32146;SDS011;32190;49.112;8.598;2023-01-28T08:00:37;0.70;;;0.70;;
32146;SDS011;32190;49.112;8.598;2023-01-28T08:06:28;0.77;;;0.77;;
32146;SDS011;32190;49.112;8.598;2023-01-28T08:12:19;0.68;;;0.68;;
32146;SDS011;32190;49.112;8.598;2023-01-28T08:18:10;0.80;;;0.80;;
32146;SDS011;32190;49.112;8.598;2023-01-28T08:24:02;1.40;;;1.30;;
32146;SDS011;32190;49.112;8.598;2023-01-28T08:29:53;0.70;;;0.70;;
32146;SDS011;32190;49.112;8.598;2023-01-28T08:35:43;1.00;;;1.00;;
32146;SDS011;32190;49.112;8.598;2023-01-28T08:41:34;0.82;;;0.82;;
32146;SDS011;32190;49.112;8.598;2023-01-28T08:47:25;0.82;;;0.82;;
32146;SDS011;32190;49.112;8.598;2023-01-28T08:53:17;0.93;;;0.90;;
32146;SDS011;32190;49.112;8.598;2023-01-28T08:59:08;0.90;;;0.90;;
32146;SDS011;32190;49.112;8.598;2023-01-28T09:05:02;1.00;;;1.00;;
32146;SDS011;32190;49.112;8.598;2023-01-28T09:10:55;1.38;;;1.27;;
32146;SDS011;32190;49.112;8.598;2023-01-28T09:16:46;1.00;;;1.00;;
32146;SDS011;32190;49.112;8.598;2023-01-28T09:22:37;1.20;;;1.10;;
32146;SDS011;32190;49.112;8.598;2023-01-28T09:28:27;1.02;;;1.00;;
32146;SDS011;32190;49.112;8.598;2023-01-28T09:34:19;1.60;;;1.50;;
32146;SDS011;32190;49.112;8.598;2023-01-28T09:40:12;2.10;;;1.20;;
32146;SDS011;32190;49.112;8.598;2023-01-28T09:46:10;1.45;;;1.30;;
32146;SDS011;32190;49.112;8.598;2023-01-28T09:52:03;1.40;;;1.30;;
32146;SDS011;32190;49.112;8.598;2023-01-28T09:57:54;1.30;;;1.20;;
32146;SDS011;32190;49.112;8.598;2023-01-28T10:03:59;1.17;;;1.08;;
32146;SDS011;32190;49.112;8.598;2023-01-28T10:10:13;1.13;;;1.10;;
32146;SDS011;32190;49.112;8.598;2023-01-28T10:22:11;1.35;;;1.25;;
32146;SDS011;32190;49.112;8.598;2023-01-28T10:28:09;0.85;;;0.85;;
32146;SDS011;32190;49.112;8.598;2023-01-28T10:34:13;1.60;;;1.45;;
32146;SDS011;32190;49.112;8.598;2023-01-28T10:40:03;1.50;;;1.40;;
32146;SDS011;32190;49.112;8.598;2023-01-28T10:45:58;1.33;;;1.23;;
32146;SDS011;32190;49.112;8.598;2023-01-28T10:51:51;1.50;;;1.40;;
32146;SDS011;32190;49.112;8.598;2023-01-28T10:57:41;1.50;;;1.40;;
32146;SDS011;32190;49.112;8.598;2023-01-28T11:03:32;1.77;;;1.67;;
32146;SDS011;32190;49.112;8.598;2023-01-28T11:09:27;1.50;;;1.40;;
32146;SDS011;32190;49.112;8.598;2023-01-28T11:15:20;2.28;;;1.20;;
32146;SDS011;32190;49.112;8.598;2023-01-28T11:21:17;1.48;;;1.38;;
32146;SDS011;32190;49.112;8.598;2023-01-28T11:27:13;1.40;;;1.30;;
32146;SDS011;32190;49.112;8.598;2023-01-28T11:33:12;1.33;;;1.23;;
32146;SDS011;32190;49.112;8.598;2023-01-28T11:39:24;2.00;;;1.88;;
32146;SDS011;32190;49.112;8.598;2023-01-28T11:45:18;1.90;;;1.73;;
32146;SDS011;32190;49.112;8.598;2023-01-28T11:57:32;1.55;;;1.45;;
32146;SDS011;32190;49.112;8.598;2023-01-28T12:09:36;1.42;;;1.27;;
32146;SDS011;32190;49.112;8.598;2023-01-28T12:15:53;1.42;;;1.33;;
32146;SDS011;32190;49.112;8.598;2023-01-28T12:28:07;1.87;;;1.47;;
32146;SDS011;32190;49.112;8.598;2023-01-28T12:46:55;1.63;;;1.52;;
32146;SDS011;32190;49.112;8.598;2023-01-28T12:52:51;2.28;;;1.65;;
32146;SDS011;32190;49.112;8.598;2023-01-28T12:59:02;1.40;;;1.30;;
32146;SDS011;32190;49.112;8.598;2023-01-28T13:11:23;0.90;;;0.90;;
32146;SDS011;32190;49.112;8.598;2023-01-28T13:17:26;1.65;;;1.20;;
32146;SDS011;32190;49.112;8.598;2023-01-28T13:23:38;1.30;;;1.20;;
32146;SDS011;32190;49.112;8.598;2023-01-28T13:29:37;1.30;;;1.20;;
32146;SDS011;32190;49.112;8.598;2023-01-28T13:35:29;1.30;;;1.20;;
32146;SDS011;32190;49.112;8.598;2023-01-28T13:41:35;1.15;;;1.08;;
32146;SDS011;32190;49.112;8.598;2023-01-28T13:47:31;1.20;;;1.10;;
32146;SDS011;32190;49.112;8.598;2023-01-28T14:17:45;1.38;;;0.95;;
32146;SDS011;32190;49.112;8.598;2023-01-28T14:23:44;1.33;;;1.10;;
32146;SDS011;32190;49.112;8.598;2023-01-28T14:29:43;0.80;;;0.80;;
32146;SDS011;32190;49.112;8.598;2023-01-28T14:35:45;0.70;;;0.70;;
32146;SDS011;32190;49.112;8.598;2023-01-28T14:41:37;0.75;;;0.75;;
32146;SDS011;32190;49.112;8.598;2023-01-28T14:59:55;0.93;;;0.93;;
32146;SDS011;32190;49.112;8.598;2023-01-28T15:06:00;1.55;;;1.45;;
32146;SDS011;32190;49.112;8.598;2023-01-28T15:12:13;1.38;;;1.27;;
32146;SDS011;32190;49.112;8.598;2023-01-28T15:18:11;1.30;;;1.30;;
32146;SDS011;32190;49.112;8.598;2023-01-28T15:24:09;3.20;;;1.60;;
32146;SDS011;32190;49.112;8.598;2023-01-28T15:30:02;1.25;;;1.23;;
32146;SDS011;32190;49.112;8.598;2023-01-28T15:35:54;1.73;;;1.60;;
32146;SDS011;32190;49.112;8.598;2023-01-28T15:47:51;2.13;;;1.40;;
32146;SDS011;32190;49.112;8.598;2023-01-28T15:53:59;1.45;;;1.30;;
32146;SDS011;32190;49.112;8.598;2023-01-28T16:00:13;1.38;;;1.27;;
32146;SDS011;32190;49.112;8.598;2023-01-28T16:06:10;1.20;;;1.10;;
32146;SDS011;32190;49.112;8.598;2023-01-28T16:12:06;1.05;;;0.98;;
32146;SDS011;32190;49.112;8.598;2023-01-28T16:18:00;1.35;;;1.15;;
32146;SDS011;32190;49.112;8.598;2023-01-28T16:30:14;2.33;;;2.13;;
32146;SDS011;32190;49.112;8.598;2023-01-28T16:36:08;1.58;;;1.48;;
32146;SDS011;32190;49.112;8.598;2023-01-28T16:42:00;1.55;;;1.15;;
32146;SDS011;32190;49.112;8.598;2023-01-28T16:47:50;1.20;;;1.20;;
32146;SDS011;32190;49.112;8.598;2023-01-28T16:53:41;1.52;;;1.38;;
32146;SDS011;32190;49.112;8.598;2023-01-28T16:59:32;1.50;;;1.40;;
32146;SDS011;32190;49.112;8.598;2023-01-28T17:05:23;1.70;;;1.60;;
32146;SDS011;32190;49.112;8.598;2023-01-28T17:11:15;1.40;;;1.30;;
32146;SDS011;32190;49.112;8.598;2023-01-28T17:17:06;1.48;;;1.38;;
32146;SDS011;32190;49.112;8.598;2023-01-28T17:22:56;2.63;;;1.80;;
32146;SDS011;32190;49.112;8.598;2023-01-28T17:28:51;2.05;;;1.73;;
32146;SDS011;32190;49.112;8.598;2023-01-28T17:34:42;1.27;;;1.17;;
32146;SDS011;32190;49.112;8.598;2023-01-28T17:40:33;1.73;;;1.63;;
32146;SDS011;32190;49.112;8.598;2023-01-28T17:46:24;4.07;;;2.17;;
32146;SDS011;32190;49.112;8.598;2023-01-28T17:52:15;1.92;;;1.83;;
32146;SDS011;32190;49.112;8.598;2023-01-28T17:58:05;1.45;;;1.35;;
32146;SDS011;32190;49.112;8.598;2023-01-28T18:03:56;1.17;;;1.08;;
32146;SDS011;32190;49.112;8.598;2023-01-28T18:09:47;1.42;;;1.33;;
32146;SDS011;32190;49.112;8.598;2023-01-28T18:15:38;2.42;;;1.50;;
32146;SDS011;32190;49.112;8.598;2023-01-28T18:21:30;1.40;;;1.30;;
32146;SDS011;32190;49.112;8.598;2023-01-28T18:27:22;1.60;;;1.50;;
32146;SDS011;32190;49.112;8.598;2023-01-28T18:33:13;1.70;;;1.60;;
32146;SDS011;32190;49.112;8.598;2023-01-28T18:39:04;2.03;;;1.60;;
32146;SDS011;32190;49.112;8.598;2023-01-28T18:44:55;1.58;;;1.48;;
32146;SDS011;32190;49.112;8.598;2023-01-28T18:50:49;1.48;;;1.38;;
32146;SDS011;32190;49.112;8.598;2023-01-28T18:56:41;1.50;;;1.40;;
32146;SDS011;32190;49.112;8.598;2023-01-28T19:02:32;2.22;;;1.90;;
32146;SDS011;32190;49.112;8.598;2023-01-28T19:08:23;1.50;;;1.40;;
32146;SDS011;32190;49.112;8.598;2023-01-28T19:14:14;1.60;;;1.50;;
32146;SDS011;32190;49.112;8.598;2023-01-28T19:20:06;2.00;;;1.83;;
32146;SDS011;32190;49.112;8.598;2023-01-28T19:26:00;1.50;;;1.42;;
32146;SDS011;32190;49.112;8.598;2023-01-28T19:31:52;1.40;;;1.30;;
32146;SDS011;32190;49.112;8.598;2023-01-28T19:37:43;1.40;;;1.30;;
32146;SDS011;32190;49.112;8.598;2023-01-28T19:43:33;1.90;;;1.67;;
32146;SDS011;32190;49.112;8.598;2023-01-28T19:49:24;1.92;;;1.73;;
32146;SDS011;32190;49.112;8.598;2023-01-28T19:55:15;3.03;;;2.72;;
32146;SDS011;32190;49.112;8.598;2023-01-28T20:01:10;1.90;;;1.58;;
32146;SDS011;32190;49.112;8.598;2023-01-28T20:07:04;1.75;;;1.50;;
32146;SDS011;32190;49.112;8.598;2023-01-28T20:12:55;1.33;;;1.23;;
32146;SDS011;32190;49.112;8.598;2023-01-28T20:18:56;1.77;;;1.67;;
32146;SDS011;32190;49.112;8.598;2023-01-28T20:24:48;2.70;;;1.50;;
32146;SDS011;32190;49.112;8.598;2023-01-28T20:30:46;3.17;;;1.50;;
32146;SDS011;32190;49.112;8.598;2023-01-28T20:36:36;1.70;;;1.60;;
32146;SDS011;32190;49.112;8.598;2023-01-28T20:42:27;2.10;;;1.52;;
32146;SDS011;32190;49.112;8.598;2023-01-28T20:48:17;1.85;;;1.75;;
32146;SDS011;32190;49.112;8.598;2023-01-28T20:54:08;2.53;;;1.80;;
32146;SDS011;32190;49.112;8.598;2023-01-28T21:00:04;2.03;;;1.83;;
32146;SDS011;32190;49.112;8.598;2023-01-28T21:05:56;1.52;;;1.42;;
32146;SDS011;32190;49.112;8.598;2023-01-28T21:11:47;1.65;;;1.55;;
32146;SDS011;32190;49.112;8.598;2023-01-28T21:17:37;1.75;;;1.65;;
32146;SDS011;32190;49.112;8.598;2023-01-28T21:23:28;3.28;;;1.90;;
32146;SDS011;32190;49.112;8.598;2023-01-28T21:29:18;1.80;;;1.55;;
32146;SDS011;32190;49.112;8.598;2023-01-28T21:35:09;1.70;;;1.45;;
32146;SDS011;32190;49.112;8.598;2023-01-28T21:41:00;1.52;;;1.42;;
32146;SDS011;32190;49.112;8.598;2023-01-28T21:46:52;1.63;;;1.52;;
32146;SDS011;32190;49.112;8.598;2023-01-28T21:52:42;2.03;;;1.75;;
32146;SDS011;32190;49.112;8.598;2023-01-28T21:58:35;1.63;;;1.45;;
32146;SDS011;32190;49.112;8.598;2023-01-28T22:04:45;1.63;;;1.52;;
32146;SDS011;32190;49.112;8.598;2023-01-28T22:10:38;1.40;;;1.30;;
32146;SDS011;32190;49.112;8.598;2023-01-28T22:16:29;2.05;;;1.92;;
32146;SDS011;32190;49.112;8.598;2023-01-28T22:22:19;1.90;;;1.77;;
32146;SDS011;32190;49.112;8.598;2023-01-28T22:28:10;1.13;;;1.10;;
32146;SDS011;32190;49.112;8.598;2023-01-28T22:34:00;1.38;;;1.27;;
32146;SDS011;32190;49.112;8.598;2023-01-28T22:39:51;2.13;;;1.73;;
32146;SDS011;32190;49.112;8.598;2023-01-28T22:45:42;1.08;;;1.08;;
32146;SDS011;32190;49.112;8.598;2023-01-28T22:51:34;1.83;;;1.73;;
32146;SDS011;32190;49.112;8.598;2023-01-28T22:57:25;2.53;;;1.30;;
32146;SDS011;32190;49.112;8.598;2023-01-28T23:03:15;1.40;;;1.30;;
32146;SDS011;32190;49.112;8.598;2023-01-28T23:09:06;1.13;;;1.10;;
32146;SDS011;32190;49.112;8.598;2023-01-28T23:14:56;1.77;;;1.67;;
32146;SDS011;32190;49.112;8.598;2023-01-28T23:21:21;1.50;;;1.40;;
32146;SDS011;32190;49.112;8.598;2023-01-28T23:27:32;1.95;;;1.55;;
32146;SDS011;32190;49.112;8.598;2023-01-28T23:33:23;1.45;;;1.30;;
32146;SDS011;32190;49.112;8.598;2023-01-28T23:39:13;2.45;;;1.77;;
32146;SDS011;32190;49.112;8.598;2023-01-28T23:45:04;1.10;;;1.10;;
32146;SDS011;32190;49.112;8.598;2023-01-28T23:50:55;1.33;;;1.23;;
32146;SDS011;32190;49.112;8.598;2023-01-28T23:56:46;0.88;;;0.88;;
